sensor_id;sensor_type;location;lat;lon;timestamp;P1;durP1;ratioP1;P2;durP2;ratioP2
72649;SDS011;61467;50.674;4.618;2023-04-25T00:01:37;13.97;;;3.23;;
72649;SDS011;61467;50.674;4.618;2023-04-25T00:04:04;12.35;;;3.00;;
72649;SDS011;61467;50.674;4.618;2023-04-25T00:06:32;15.25;;;3.60;;
72649;SDS011;61467;50.674;4.618;2023-04-25T00:09:02;12.50;;;3.42;;
72649;SDS011;61467;50.674;4.618;2023-04-25T00:11:28;13.57;;;3.72;;
72649;SDS011;61467;50.674;4.618;2023-04-25T00:13:56;11.93;;;3.20;;
72649;SDS011;61467;50.674;4.618;2023-04-25T00:16:22;12.63;;;3.15;;
72649;SDS011;61467;50.674;4.618;2023-04-25T00:18:49;14.45;;;3.55;;
72649;SDS011;61467;50.674;4.618;2023-04-25T00:21:18;11.73;;;4.03;;
72649;SDS011;61467;50.674;4.618;2023-04-25T00:23:47;15.60;;;3.55;;
72649;SDS011;61467;50.674;4.618;2023-04-25T00:26:13;9.80;;;2.83;;
72649;SDS011;61467;50.674;4.618;2023-04-25T00:28:42;11.80;;;3.13;;
72649;SDS011;61467;50.674;4.618;2023-04-25T00:31:08;13.13;;;3.03;;
72649;SDS011;61467;50.674;4.618;2023-04-25T00:33:35;15.38;;;3.72;;
72649;SDS011;61467;50.674;4.618;2023-04-25T00:36:02;10.35;;;2.80;;
72649;SDS011;61467;50.674;4.618;2023-04-25T00:38:29;12.20;;;3.17;;
72649;SDS011;61467;50.674;4.618;2023-04-25T00:40:59;14.40;;;3.58;;
72649;SDS011;61467;50.674;4.618;2023-04-25T00:43:26;12.73;;;2.95;;
72649;SDS011;61467;50.674;4.618;2023-04-25T00:45:53;12.30;;;3.17;;
72649;SDS011;61467;50.674;4.618;2023-04-25T00:48:22;13.50;;;2.70;;
72649;SDS011;61467;50.674;4.618;2023-04-25T00:50:51;12.13;;;3.20;;
72649;SDS011;61467;50.674;4.618;2023-04-25T00:53:19;14.55;;;3.10;;
72649;SDS011;61467;50.674;4.618;2023-04-25T00:55:47;12.48;;;2.80;;
72649;SDS011;61467;50.674;4.618;2023-04-25T00:58:17;10.23;;;2.80;;
72649;SDS011;61467;50.674;4.618;2023-04-25T01:00:47;13.63;;;3.03;;
72649;SDS011;61467;50.674;4.618;2023-04-25T01:03:17;8.93;;;2.70;;
72649;SDS011;61467;50.674;4.618;2023-04-25T01:05:45;10.10;;;2.60;;
72649;SDS011;61467;50.674;4.618;2023-04-25T01:08:13;13.40;;;3.15;;
72649;SDS011;61467;50.674;4.618;2023-04-25T01:10:40;12.82;;;3.20;;
72649;SDS011;61467;50.674;4.618;2023-04-25T01:13:09;11.57;;;3.25;;
72649;SDS011;61467;50.674;4.618;2023-04-25T01:15:37;15.47;;;3.13;;
72649;SDS011;61467;50.674;4.618;2023-04-25T01:18:04;11.95;;;3.15;;
72649;SDS011;61467;50.674;4.618;2023-04-25T01:20:32;10.40;;;3.00;;
72649;SDS011;61467;50.674;4.618;2023-04-25T01:23:01;12.80;;;3.13;;
72649;SDS011;61467;50.674;4.618;2023-04-25T01:25:29;13.77;;;3.25;;
72649;SDS011;61467;50.674;4.618;2023-04-25T01:27:57;13.07;;;2.80;;
72649;SDS011;61467;50.674;4.618;2023-04-25T01:30:25;16.48;;;3.03;;
72649;SDS011;61467;50.674;4.618;2023-04-25T01:32:53;11.80;;;3.25;;
72649;SDS011;61467;50.674;4.618;2023-04-25T01:35:21;13.55;;;2.58;;
72649;SDS011;61467;50.674;4.618;2023-04-25T01:37:50;13.23;;;3.05;;
72649;SDS011;61467;50.674;4.618;2023-04-25T01:40:19;11.13;;;2.53;;
72649;SDS011;61467;50.674;4.618;2023-04-25T01:42:48;13.45;;;3.40;;
72649;SDS011;61467;50.674;4.618;2023-04-25T01:45:15;13.80;;;3.28;;
72649;SDS011;61467;50.674;4.618;2023-04-25T01:47:42;16.23;;;3.63;;
72649;SDS011;61467;50.674;4.618;2023-04-25T01:50:14;16.38;;;3.67;;
72649;SDS011;61467;50.674;4.618;2023-04-25T01:52:42;14.87;;;3.13;;
72649;SDS011;61467;50.674;4.618;2023-04-25T01:55:09;13.00;;;2.85;;
72649;SDS011;61467;50.674;4.618;2023-04-25T01:57:38;17.15;;;4.20;;
72649;SDS011;61467;50.674;4.618;2023-04-25T02:00:05;14.50;;;3.42;;
72649;SDS011;61467;50.674;4.618;2023-04-25T02:02:33;13.80;;;3.70;;
72649;SDS011;61467;50.674;4.618;2023-04-25T02:05:00;12.77;;;3.10;;
72649;SDS011;61467;50.674;4.618;2023-04-25T02:07:27;15.43;;;4.05;;
72649;SDS011;61467;50.674;4.618;2023-04-25T02:09:54;13.75;;;4.05;;
72649;SDS011;61467;50.674;4.618;2023-04-25T02:12:21;13.88;;;3.45;;
72649;SDS011;61467;50.674;4.618;2023-04-25T02:14:49;14.10;;;3.35;;
72649;SDS011;61467;50.674;4.618;2023-04-25T02:17:16;14.50;;;3.70;;
72649;SDS011;61467;50.674;4.618;2023-04-25T02:19:43;11.40;;;3.60;;
72649;SDS011;61467;50.674;4.618;2023-04-25T02:22:09;11.43;;;3.53;;
72649;SDS011;61467;50.674;4.618;2023-04-25T02:24:36;13.20;;;3.70;;
72649;SDS011;61467;50.674;4.618;2023-04-25T02:27:06;14.77;;;3.72;;
72649;SDS011;61467;50.674;4.618;2023-04-25T02:29:32;14.97;;;4.03;;
72649;SDS011;61467;50.674;4.618;2023-04-25T02:32:01;11.32;;;3.50;;
72649;SDS011;61467;50.674;4.618;2023-04-25T02:34:28;16.48;;;4.22;;
72649;SDS011;61467;50.674;4.618;2023-04-25T02:36:55;11.55;;;3.45;;
72649;SDS011;61467;50.674;4.618;2023-04-25T02:39:21;17.30;;;4.30;;
72649;SDS011;61467;50.674;4.618;2023-04-25T02:41:50;13.37;;;3.90;;
72649;SDS011;61467;50.674;4.618;2023-04-25T02:44:18;15.10;;;3.83;;
72649;SDS011;61467;50.674;4.618;2023-04-25T02:46:45;14.38;;;3.70;;
72649;SDS011;61467;50.674;4.618;2023-04-25T02:49:13;18.00;;;4.22;;
72649;SDS011;61467;50.674;4.618;2023-04-25T02:51:40;12.07;;;3.47;;
72649;SDS011;61467;50.674;4.618;2023-04-25T02:54:07;17.53;;;3.90;;
72649;SDS011;61467;50.674;4.618;2023-04-25T02:56:34;13.43;;;3.75;;
72649;SDS011;61467;50.674;4.618;2023-04-25T02:59:00;15.45;;;4.22;;
72649;SDS011;61467;50.674;4.618;2023-04-25T03:01:27;12.27;;;3.88;;
72649;SDS011;61467;50.674;4.618;2023-04-25T03:03:54;13.13;;;3.78;;
72649;SDS011;61467;50.674;4.618;2023-04-25T03:06:23;14.20;;;4.83;;
72649;SDS011;61467;50.674;4.618;2023-04-25T03:08:49;16.42;;;3.65;;
72649;SDS011;61467;50.674;4.618;2023-04-25T03:11:16;14.68;;;4.43;;
72649;SDS011;61467;50.674;4.618;2023-04-25T03:13:45;15.30;;;4.40;;
72649;SDS011;61467;50.674;4.618;2023-04-25T03:16:12;20.08;;;4.65;;
72649;SDS011;61467;50.674;4.618;2023-04-25T03:18:38;15.40;;;4.13;;
72649;SDS011;61467;50.674;4.618;2023-04-25T03:21:05;15.40;;;4.00;;
72649;SDS011;61467;50.674;4.618;2023-04-25T03:23:34;18.65;;;4.45;;
72649;SDS011;61467;50.674;4.618;2023-04-25T03:26:00;12.20;;;3.25;;
72649;SDS011;61467;50.674;4.618;2023-04-25T03:28:27;11.30;;;3.20;;
72649;SDS011;61467;50.674;4.618;2023-04-25T03:30:54;11.13;;;3.33;;
72649;SDS011;61467;50.674;4.618;2023-04-25T03:33:21;13.73;;;2.95;;
72649;SDS011;61467;50.674;4.618;2023-04-25T03:35:48;12.40;;;3.20;;
72649;SDS011;61467;50.674;4.618;2023-04-25T03:38:15;13.65;;;3.50;;
72649;SDS011;61467;50.674;4.618;2023-04-25T03:40:44;14.60;;;3.50;;
72649;SDS011;61467;50.674;4.618;2023-04-25T03:43:11;10.73;;;2.80;;
72649;SDS011;61467;50.674;4.618;2023-04-25T03:45:38;16.35;;;3.28;;
72649;SDS011;61467;50.674;4.618;2023-04-25T03:48:05;10.68;;;2.80;;
72649;SDS011;61467;50.674;4.618;2023-04-25T03:50:31;11.73;;;3.00;;
72649;SDS011;61467;50.674;4.618;2023-04-25T03:52:58;12.05;;;2.80;;
72649;SDS011;61467;50.674;4.618;2023-04-25T03:55:25;11.50;;;3.13;;
72649;SDS011;61467;50.674;4.618;2023-04-25T03:57:53;14.77;;;4.00;;
72649;SDS011;61467;50.674;4.618;2023-04-25T04:00:24;10.70;;;3.03;;
72649;SDS011;61467;50.674;4.618;2023-04-25T04:02:51;14.27;;;3.10;;
72649;SDS011;61467;50.674;4.618;2023-04-25T04:05:18;8.90;;;2.92;;
72649;SDS011;61467;50.674;4.618;2023-04-25T04:07:47;13.40;;;3.57;;
72649;SDS011;61467;50.674;4.618;2023-04-25T04:10:14;11.02;;;3.28;;
72649;SDS011;61467;50.674;4.618;2023-04-25T04:12:41;11.45;;;3.42;;
72649;SDS011;61467;50.674;4.618;2023-04-25T04:15:09;9.68;;;2.92;;
72649;SDS011;61467;50.674;4.618;2023-04-25T04:17:37;12.88;;;3.50;;
72649;SDS011;61467;50.674;4.618;2023-04-25T04:20:04;11.10;;;3.07;;
72649;SDS011;61467;50.674;4.618;2023-04-25T04:22:32;10.98;;;2.83;;
72649;SDS011;61467;50.674;4.618;2023-04-25T04:24:59;11.25;;;3.30;;
72649;SDS011;61467;50.674;4.618;2023-04-25T04:27:28;14.30;;;3.30;;
72649;SDS011;61467;50.674;4.618;2023-04-25T04:29:55;11.40;;;3.40;;
72649;SDS011;61467;50.674;4.618;2023-04-25T04:32:24;10.83;;;3.07;;
72649;SDS011;61467;50.674;4.618;2023-04-25T04:34:53;12.43;;;3.58;;
72649;SDS011;61467;50.674;4.618;2023-04-25T04:37:21;13.57;;;3.95;;
72649;SDS011;61467;50.674;4.618;2023-04-25T04:39:49;12.50;;;3.25;;
72649;SDS011;61467;50.674;4.618;2023-04-25T04:42:17;10.90;;;3.65;;
72649;SDS011;61467;50.674;4.618;2023-04-25T04:44:43;14.70;;;3.70;;
72649;SDS011;61467;50.674;4.618;2023-04-25T04:47:10;17.90;;;3.65;;
72649;SDS011;61467;50.674;4.618;2023-04-25T04:49:39;15.95;;;3.90;;
72649;SDS011;61467;50.674;4.618;2023-04-25T04:52:06;15.30;;;3.53;;
72649;SDS011;61467;50.674;4.618;2023-04-25T04:54:33;13.68;;;3.33;;
72649;SDS011;61467;50.674;4.618;2023-04-25T04:57:00;13.67;;;3.30;;
72649;SDS011;61467;50.674;4.618;2023-04-25T04:59:27;15.10;;;3.83;;
72649;SDS011;61467;50.674;4.618;2023-04-25T05:01:54;13.63;;;3.88;;
72649;SDS011;61467;50.674;4.618;2023-04-25T05:04:21;14.70;;;3.15;;
72649;SDS011;61467;50.674;4.618;2023-04-25T05:06:49;11.63;;;3.10;;
72649;SDS011;61467;50.674;4.618;2023-04-25T05:09:15;14.50;;;3.57;;
72649;SDS011;61467;50.674;4.618;2023-04-25T05:11:44;14.25;;;3.55;;
72649;SDS011;61467;50.674;4.618;2023-04-25T05:14:11;13.65;;;3.20;;
72649;SDS011;61467;50.674;4.618;2023-04-25T05:16:38;14.63;;;2.95;;
72649;SDS011;61467;50.674;4.618;2023-04-25T05:19:07;10.38;;;2.83;;
72649;SDS011;61467;50.674;4.618;2023-04-25T05:21:34;15.57;;;4.40;;
72649;SDS011;61467;50.674;4.618;2023-04-25T05:24:02;11.57;;;3.17;;
72649;SDS011;61467;50.674;4.618;2023-04-25T05:26:29;13.23;;;2.80;;
72649;SDS011;61467;50.674;4.618;2023-04-25T05:28:56;14.77;;;3.05;;
72649;SDS011;61467;50.674;4.618;2023-04-25T05:31:23;11.35;;;3.63;;
72649;SDS011;61467;50.674;4.618;2023-04-25T05:33:50;15.00;;;3.20;;
72649;SDS011;61467;50.674;4.618;2023-04-25T05:36:18;13.23;;;3.35;;
72649;SDS011;61467;50.674;4.618;2023-04-25T05:38:45;12.38;;;3.05;;
72649;SDS011;61467;50.674;4.618;2023-04-25T05:41:13;12.85;;;3.00;;
72649;SDS011;61467;50.674;4.618;2023-04-25T05:43:40;14.77;;;3.80;;
72649;SDS011;61467;50.674;4.618;2023-04-25T05:46:10;10.60;;;3.10;;
72649;SDS011;61467;50.674;4.618;2023-04-25T05:48:37;12.35;;;3.10;;
72649;SDS011;61467;50.674;4.618;2023-04-25T05:51:04;15.90;;;3.53;;
72649;SDS011;61467;50.674;4.618;2023-04-25T05:53:31;12.88;;;3.50;;
72649;SDS011;61467;50.674;4.618;2023-04-25T05:55:57;12.18;;;3.65;;
72649;SDS011;61467;50.674;4.618;2023-04-25T05:58:26;12.27;;;3.37;;
72649;SDS011;61467;50.674;4.618;2023-04-25T06:00:53;13.77;;;3.10;;
72649;SDS011;61467;50.674;4.618;2023-04-25T06:03:20;13.85;;;3.35;;
72649;SDS011;61467;50.674;4.618;2023-04-25T06:05:47;11.43;;;3.75;;
72649;SDS011;61467;50.674;4.618;2023-04-25T06:08:14;17.00;;;3.63;;
72649;SDS011;61467;50.674;4.618;2023-04-25T06:10:41;14.27;;;3.23;;
72649;SDS011;61467;50.674;4.618;2023-04-25T06:13:09;13.52;;;3.20;;
72649;SDS011;61467;50.674;4.618;2023-04-25T06:15:37;17.67;;;4.13;;
72649;SDS011;61467;50.674;4.618;2023-04-25T06:18:04;12.48;;;3.10;;
72649;SDS011;61467;50.674;4.618;2023-04-25T06:20:34;13.30;;;3.42;;
72649;SDS011;61467;50.674;4.618;2023-04-25T06:23:01;13.03;;;3.23;;
72649;SDS011;61467;50.674;4.618;2023-04-25T06:25:28;11.45;;;3.80;;
72649;SDS011;61467;50.674;4.618;2023-04-25T06:27:55;11.90;;;3.85;;
72649;SDS011;61467;50.674;4.618;2023-04-25T06:30:22;13.02;;;3.40;;
72649;SDS011;61467;50.674;4.618;2023-04-25T06:35:38;14.73;;;3.70;;
72649;SDS011;61467;50.674;4.618;2023-04-25T06:38:05;14.75;;;3.75;;
72649;SDS011;61467;50.674;4.618;2023-04-25T06:40:34;13.07;;;3.67;;
72649;SDS011;61467;50.674;4.618;2023-04-25T06:43:01;12.20;;;3.53;;
72649;SDS011;61467;50.674;4.618;2023-04-25T06:45:28;11.57;;;3.90;;
72649;SDS011;61467;50.674;4.618;2023-04-25T06:47:55;14.73;;;3.17;;
72649;SDS011;61467;50.674;4.618;2023-04-25T06:50:24;16.92;;;3.88;;
72649;SDS011;61467;50.674;4.618;2023-04-25T06:52:51;13.35;;;4.88;;
72649;SDS011;61467;50.674;4.618;2023-04-25T06:55:17;16.35;;;4.10;;
72649;SDS011;61467;50.674;4.618;2023-04-25T06:57:44;15.32;;;3.45;;
72649;SDS011;61467;50.674;4.618;2023-04-25T07:00:12;12.33;;;3.53;;
72649;SDS011;61467;50.674;4.618;2023-04-25T07:02:40;14.27;;;3.47;;
72649;SDS011;61467;50.674;4.618;2023-04-25T07:05:09;15.30;;;3.63;;
72649;SDS011;61467;50.674;4.618;2023-04-25T07:07:38;12.30;;;3.40;;
72649;SDS011;61467;50.674;4.618;2023-04-25T07:10:05;19.92;;;3.70;;
72649;SDS011;61467;50.674;4.618;2023-04-25T07:12:32;13.27;;;3.40;;
72649;SDS011;61467;50.674;4.618;2023-04-25T07:15:01;18.42;;;3.75;;
72649;SDS011;61467;50.674;4.618;2023-04-25T07:17:31;13.88;;;3.53;;
72649;SDS011;61467;50.674;4.618;2023-04-25T07:19:59;15.68;;;4.05;;
72649;SDS011;61467;50.674;4.618;2023-04-25T07:22:28;13.90;;;3.42;;
72649;SDS011;61467;50.674;4.618;2023-04-25T07:24:57;14.53;;;3.47;;
72649;SDS011;61467;50.674;4.618;2023-04-25T07:27:23;12.57;;;3.47;;
72649;SDS011;61467;50.674;4.618;2023-04-25T07:29:50;17.63;;;4.47;;
72649;SDS011;61467;50.674;4.618;2023-04-25T07:32:17;12.93;;;3.72;;
72649;SDS011;61467;50.674;4.618;2023-04-25T07:34:44;12.90;;;3.60;;
72649;SDS011;61467;50.674;4.618;2023-04-25T07:37:11;15.63;;;3.83;;
72649;SDS011;61467;50.674;4.618;2023-04-25T07:39:39;16.65;;;4.20;;
72649;SDS011;61467;50.674;4.618;2023-04-25T07:42:07;13.95;;;3.90;;
72649;SDS011;61467;50.674;4.618;2023-04-25T07:44:34;17.27;;;4.38;;
72649;SDS011;61467;50.674;4.618;2023-04-25T07:47:04;16.80;;;4.80;;
72649;SDS011;61467;50.674;4.618;2023-04-25T07:49:33;14.27;;;3.73;;
72649;SDS011;61467;50.674;4.618;2023-04-25T07:52:00;15.15;;;3.92;;
72649;SDS011;61467;50.674;4.618;2023-04-25T07:54:27;18.33;;;4.20;;
72649;SDS011;61467;50.674;4.618;2023-04-25T07:56:54;14.13;;;3.53;;
72649;SDS011;61467;50.674;4.618;2023-04-25T07:59:23;9.75;;;3.33;;
72649;SDS011;61467;50.674;4.618;2023-04-25T08:01:50;16.80;;;4.00;;
72649;SDS011;61467;50.674;4.618;2023-04-25T08:04:17;14.55;;;3.60;;
72649;SDS011;61467;50.674;4.618;2023-04-25T08:06:46;17.73;;;3.67;;
72649;SDS011;61467;50.674;4.618;2023-04-25T08:09:14;14.25;;;3.50;;
72649;SDS011;61467;50.674;4.618;2023-04-25T08:11:41;19.13;;;4.35;;
72649;SDS011;61467;50.674;4.618;2023-04-25T08:14:08;15.97;;;4.00;;
72649;SDS011;61467;50.674;4.618;2023-04-25T08:16:37;11.93;;;3.55;;
72649;SDS011;61467;50.674;4.618;2023-04-25T08:19:04;19.55;;;4.50;;
72649;SDS011;61467;50.674;4.618;2023-04-25T08:21:31;11.18;;;3.97;;
72649;SDS011;61467;50.674;4.618;2023-04-25T08:23:58;16.45;;;4.47;;
72649;SDS011;61467;50.674;4.618;2023-04-25T08:26:24;12.17;;;3.93;;
72649;SDS011;61467;50.674;4.618;2023-04-25T08:28:51;23.75;;;4.55;;
72649;SDS011;61467;50.674;4.618;2023-04-25T08:31:18;14.07;;;4.45;;
72649;SDS011;61467;50.674;4.618;2023-04-25T08:33:47;15.75;;;5.20;;
72649;SDS011;61467;50.674;4.618;2023-04-25T08:36:14;14.32;;;4.45;;
72649;SDS011;61467;50.674;4.618;2023-04-25T08:38:42;15.23;;;4.53;;
72649;SDS011;61467;50.674;4.618;2023-04-25T08:41:09;15.82;;;4.20;;
72649;SDS011;61467;50.674;4.618;2023-04-25T08:43:38;13.95;;;4.18;;
72649;SDS011;61467;50.674;4.618;2023-04-25T08:46:09;12.82;;;4.22;;
72649;SDS011;61467;50.674;4.618;2023-04-25T08:48:36;16.30;;;4.70;;
72649;SDS011;61467;50.674;4.618;2023-04-25T08:51:05;11.00;;;3.43;;
72649;SDS011;61467;50.674;4.618;2023-04-25T08:53:33;17.42;;;3.63;;
72649;SDS011;61467;50.674;4.618;2023-04-25T08:56:01;14.73;;;3.75;;
72649;SDS011;61467;50.674;4.618;2023-04-25T08:58:28;12.88;;;3.50;;
72649;SDS011;61467;50.674;4.618;2023-04-25T09:00:55;11.55;;;3.47;;
72649;SDS011;61467;50.674;4.618;2023-04-25T09:03:22;12.23;;;3.20;;
72649;SDS011;61467;50.674;4.618;2023-04-25T09:05:49;12.80;;;3.30;;
72649;SDS011;61467;50.674;4.618;2023-04-25T09:08:19;13.25;;;3.60;;
72649;SDS011;61467;50.674;4.618;2023-04-25T09:10:47;12.45;;;2.85;;
72649;SDS011;61467;50.674;4.618;2023-04-25T09:13:23;13.57;;;3.10;;
72649;SDS011;61467;50.674;4.618;2023-04-25T09:15:52;12.03;;;2.90;;
72649;SDS011;61467;50.674;4.618;2023-04-25T09:18:25;10.15;;;2.72;;
72649;SDS011;61467;50.674;4.618;2023-04-25T09:20:53;11.18;;;2.80;;
72649;SDS011;61467;50.674;4.618;2023-04-25T09:23:22;11.75;;;3.10;;
72649;SDS011;61467;50.674;4.618;2023-04-25T09:25:50;11.02;;;3.00;;
72649;SDS011;61467;50.674;4.618;2023-04-25T09:28:22;10.87;;;2.87;;
72649;SDS011;61467;50.674;4.618;2023-04-25T09:30:53;11.68;;;3.08;;
72649;SDS011;61467;50.674;4.618;2023-04-25T09:33:22;11.55;;;3.20;;
72649;SDS011;61467;50.674;4.618;2023-04-25T09:35:54;13.52;;;3.53;;
72649;SDS011;61467;50.674;4.618;2023-04-25T09:38:29;14.15;;;3.78;;
72649;SDS011;61467;50.674;4.618;2023-04-25T09:40:57;11.30;;;3.13;;
72649;SDS011;61467;50.674;4.618;2023-04-25T09:43:25;10.38;;;3.33;;
72649;SDS011;61467;50.674;4.618;2023-04-25T09:45:53;12.45;;;3.88;;
72649;SDS011;61467;50.674;4.618;2023-04-25T09:48:24;12.80;;;3.80;;
72649;SDS011;61467;50.674;4.618;2023-04-25T09:51:03;13.75;;;3.38;;
72649;SDS011;61467;50.674;4.618;2023-04-25T09:53:33;12.20;;;3.27;;
72649;SDS011;61467;50.674;4.618;2023-04-25T09:56:03;13.77;;;3.50;;
72649;SDS011;61467;50.674;4.618;2023-04-25T09:58:31;11.13;;;3.50;;
72649;SDS011;61467;50.674;4.618;2023-04-25T10:00:59;12.30;;;3.38;;
72649;SDS011;61467;50.674;4.618;2023-04-25T10:03:27;13.85;;;3.70;;
72649;SDS011;61467;50.674;4.618;2023-04-25T10:05:57;10.67;;;3.33;;
72649;SDS011;61467;50.674;4.618;2023-04-25T10:08:27;10.88;;;3.28;;
72649;SDS011;61467;50.674;4.618;2023-04-25T10:11:01;9.35;;;3.45;;
72649;SDS011;61467;50.674;4.618;2023-04-25T10:13:29;9.05;;;2.70;;
72649;SDS011;61467;50.674;4.618;2023-04-25T10:15:57;10.32;;;2.38;;
72649;SDS011;61467;50.674;4.618;2023-04-25T10:18:25;10.33;;;2.40;;
72649;SDS011;61467;50.674;4.618;2023-04-25T10:20:53;7.88;;;2.80;;
72649;SDS011;61467;50.674;4.618;2023-04-25T10:23:21;13.70;;;2.90;;
72649;SDS011;61467;50.674;4.618;2023-04-25T10:25:48;8.02;;;2.67;;
72649;SDS011;61467;50.674;4.618;2023-04-25T10:28:17;10.13;;;3.13;;
72649;SDS011;61467;50.674;4.618;2023-04-25T10:33:33;11.10;;;3.17;;
72649;SDS011;61467;50.674;4.618;2023-04-25T10:36:08;10.50;;;2.75;;
72649;SDS011;61467;50.674;4.618;2023-04-25T10:38:36;15.77;;;3.40;;
72649;SDS011;61467;50.674;4.618;2023-04-25T10:41:03;7.30;;;2.67;;
72649;SDS011;61467;50.674;4.618;2023-04-25T10:43:35;10.53;;;2.80;;
72649;SDS011;61467;50.674;4.618;2023-04-25T10:46:15;11.65;;;2.95;;
72649;SDS011;61467;50.674;4.618;2023-04-25T10:48:48;13.32;;;3.13;;
72649;SDS011;61467;50.674;4.618;2023-04-25T10:51:17;11.15;;;2.70;;
72649;SDS011;61467;50.674;4.618;2023-04-25T10:53:45;6.78;;;2.15;;
72649;SDS011;61467;50.674;4.618;2023-04-25T10:56:16;10.17;;;2.57;;
72649;SDS011;61467;50.674;4.618;2023-04-25T10:58:45;10.85;;;2.88;;
72649;SDS011;61467;50.674;4.618;2023-04-25T11:01:13;10.02;;;2.83;;
72649;SDS011;61467;50.674;4.618;2023-04-25T11:03:41;10.70;;;2.30;;
72649;SDS011;61467;50.674;4.618;2023-04-25T11:06:15;8.10;;;2.70;;
72649;SDS011;61467;50.674;4.618;2023-04-25T11:08:48;8.87;;;3.10;;
72649;SDS011;61467;50.674;4.618;2023-04-25T11:11:16;10.63;;;2.70;;
72649;SDS011;61467;50.674;4.618;2023-04-25T11:13:43;9.20;;;2.83;;
72649;SDS011;61467;50.674;4.618;2023-04-25T11:16:13;9.98;;;2.80;;
72649;SDS011;61467;50.674;4.618;2023-04-25T11:18:40;10.20;;;2.72;;
72649;SDS011;61467;50.674;4.618;2023-04-25T11:21:07;10.40;;;2.73;;
72649;SDS011;61467;50.674;4.618;2023-04-25T11:23:34;11.57;;;3.10;;
72649;SDS011;61467;50.674;4.618;2023-04-25T11:26:01;8.30;;;2.90;;
72649;SDS011;61467;50.674;4.618;2023-04-25T11:28:29;7.63;;;3.28;;
72649;SDS011;61467;50.674;4.618;2023-04-25T11:30:57;9.90;;;2.80;;
72649;SDS011;61467;50.674;4.618;2023-04-25T11:33:25;8.83;;;2.93;;
72649;SDS011;61467;50.674;4.618;2023-04-25T11:35:53;7.82;;;2.42;;
72649;SDS011;61467;50.674;4.618;2023-04-25T11:38:21;12.25;;;3.63;;
72649;SDS011;61467;50.674;4.618;2023-04-25T11:40:52;9.63;;;2.70;;
72649;SDS011;61467;50.674;4.618;2023-04-25T11:43:21;9.30;;;2.00;;
72649;SDS011;61467;50.674;4.618;2023-04-25T11:45:49;6.43;;;1.93;;
72649;SDS011;61467;50.674;4.618;2023-04-25T11:48:18;9.07;;;1.90;;
72649;SDS011;61467;50.674;4.618;2023-04-25T11:50:46;5.65;;;1.63;;
72649;SDS011;61467;50.674;4.618;2023-04-25T11:53:13;12.48;;;2.28;;
72649;SDS011;61467;50.674;4.618;2023-04-25T11:55:39;8.35;;;1.95;;
72649;SDS011;61467;50.674;4.618;2023-04-25T11:58:07;6.60;;;1.80;;
72649;SDS011;61467;50.674;4.618;2023-04-25T12:00:33;5.82;;;1.70;;
72649;SDS011;61467;50.674;4.618;2023-04-25T12:03:00;7.95;;;1.88;;
72649;SDS011;61467;50.674;4.618;2023-04-25T12:05:30;6.95;;;1.80;;
72649;SDS011;61467;50.674;4.618;2023-04-25T12:07:58;10.15;;;2.15;;
72649;SDS011;61467;50.674;4.618;2023-04-25T12:10:37;8.60;;;2.00;;
72649;SDS011;61467;50.674;4.618;2023-04-25T12:13:22;10.82;;;2.20;;
72649;SDS011;61467;50.674;4.618;2023-04-25T12:15:50;8.82;;;2.25;;
72649;SDS011;61467;50.674;4.618;2023-04-25T12:18:22;7.97;;;2.03;;
72649;SDS011;61467;50.674;4.618;2023-04-25T12:20:53;9.45;;;2.35;;
72649;SDS011;61467;50.674;4.618;2023-04-25T12:23:24;10.03;;;2.30;;
72649;SDS011;61467;50.674;4.618;2023-04-25T12:25:52;8.75;;;2.92;;
72649;SDS011;61467;50.674;4.618;2023-04-25T12:28:20;7.82;;;2.55;;
72649;SDS011;61467;50.674;4.618;2023-04-25T12:30:52;9.15;;;2.10;;
72649;SDS011;61467;50.674;4.618;2023-04-25T12:33:20;8.52;;;2.15;;
72649;SDS011;61467;50.674;4.618;2023-04-25T12:35:47;5.67;;;1.77;;
72649;SDS011;61467;50.674;4.618;2023-04-25T12:38:21;8.63;;;2.47;;
72649;SDS011;61467;50.674;4.618;2023-04-25T12:40:48;6.95;;;2.40;;
72649;SDS011;61467;50.674;4.618;2023-04-25T12:43:15;9.20;;;2.33;;
72649;SDS011;61467;50.674;4.618;2023-04-25T12:45:43;7.25;;;2.42;;
72649;SDS011;61467;50.674;4.618;2023-04-25T12:48:10;7.77;;;1.80;;
72649;SDS011;61467;50.674;4.618;2023-04-25T12:50:37;8.70;;;1.80;;
72649;SDS011;61467;50.674;4.618;2023-04-25T12:53:04;7.13;;;2.00;;
72649;SDS011;61467;50.674;4.618;2023-04-25T12:55:32;6.45;;;1.55;;
72649;SDS011;61467;50.674;4.618;2023-04-25T12:57:59;7.60;;;2.03;;
72649;SDS011;61467;50.674;4.618;2023-04-25T13:00:29;8.33;;;1.53;;
72649;SDS011;61467;50.674;4.618;2023-04-25T13:02:56;5.45;;;1.30;;
72649;SDS011;61467;50.674;4.618;2023-04-25T13:05:23;7.78;;;1.42;;
72649;SDS011;61467;50.674;4.618;2023-04-25T13:07:50;7.15;;;1.25;;
72649;SDS011;61467;50.674;4.618;2023-04-25T13:10:17;5.50;;;1.30;;
72649;SDS011;61467;50.674;4.618;2023-04-25T13:12:45;4.97;;;1.17;;
72649;SDS011;61467;50.674;4.618;2023-04-25T13:15:12;5.68;;;1.80;;
72649;SDS011;61467;50.674;4.618;2023-04-25T13:17:40;7.30;;;1.48;;
72649;SDS011;61467;50.674;4.618;2023-04-25T13:20:08;7.30;;;1.50;;
72649;SDS011;61467;50.674;4.618;2023-04-25T13:22:36;7.13;;;1.40;;
72649;SDS011;61467;50.674;4.618;2023-04-25T13:25:04;4.80;;;1.27;;
72649;SDS011;61467;50.674;4.618;2023-04-25T13:27:32;4.32;;;0.95;;
72649;SDS011;61467;50.674;4.618;2023-04-25T13:30:00;3.75;;;0.93;;
72649;SDS011;61467;50.674;4.618;2023-04-25T13:32:32;4.35;;;0.82;;
72649;SDS011;61467;50.674;4.618;2023-04-25T13:34:59;5.75;;;1.23;;
72649;SDS011;61467;50.674;4.618;2023-04-25T13:37:26;5.53;;;1.00;;
72649;SDS011;61467;50.674;4.618;2023-04-25T13:39:55;5.03;;;0.93;;
72649;SDS011;61467;50.674;4.618;2023-04-25T13:42:33;5.50;;;1.33;;
72649;SDS011;61467;50.674;4.618;2023-04-25T13:45:00;3.58;;;0.90;;
72649;SDS011;61467;50.674;4.618;2023-04-25T13:47:29;5.53;;;1.20;;
72649;SDS011;61467;50.674;4.618;2023-04-25T13:49:56;4.93;;;0.77;;
72649;SDS011;61467;50.674;4.618;2023-04-25T13:52:23;5.03;;;1.00;;
72649;SDS011;61467;50.674;4.618;2023-04-25T13:54:50;4.50;;;0.77;;
72649;SDS011;61467;50.674;4.618;2023-04-25T13:57:19;5.78;;;1.13;;
72649;SDS011;61467;50.674;4.618;2023-04-25T13:59:47;3.33;;;1.00;;
72649;SDS011;61467;50.674;4.618;2023-04-25T14:02:14;6.63;;;1.95;;
72649;SDS011;61467;50.674;4.618;2023-04-25T14:04:41;5.65;;;1.00;;
72649;SDS011;61467;50.674;4.618;2023-04-25T14:07:08;4.73;;;1.07;;
72649;SDS011;61467;50.674;4.618;2023-04-25T14:09:36;5.32;;;1.40;;
72649;SDS011;61467;50.674;4.618;2023-04-25T14:12:02;6.47;;;1.00;;
72649;SDS011;61467;50.674;4.618;2023-04-25T14:14:29;4.90;;;0.90;;
72649;SDS011;61467;50.674;4.618;2023-04-25T14:17:01;5.45;;;1.00;;
72649;SDS011;61467;50.674;4.618;2023-04-25T14:19:28;4.87;;;0.80;;
72649;SDS011;61467;50.674;4.618;2023-04-25T14:21:54;6.68;;;1.13;;
72649;SDS011;61467;50.674;4.618;2023-04-25T14:24:22;4.75;;;1.40;;
72649;SDS011;61467;50.674;4.618;2023-04-25T14:26:48;3.65;;;0.90;;
72649;SDS011;61467;50.674;4.618;2023-04-25T14:29:15;3.75;;;0.90;;
72649;SDS011;61467;50.674;4.618;2023-04-25T14:31:42;4.73;;;0.80;;
72649;SDS011;61467;50.674;4.618;2023-04-25T14:34:11;7.05;;;1.20;;
72649;SDS011;61467;50.674;4.618;2023-04-25T14:36:38;4.93;;;1.25;;
72649;SDS011;61467;50.674;4.618;2023-04-25T14:39:05;5.38;;;1.05;;
72649;SDS011;61467;50.674;4.618;2023-04-25T14:41:32;6.78;;;1.08;;
72649;SDS011;61467;50.674;4.618;2023-04-25T14:43:59;4.23;;;0.97;;
72649;SDS011;61467;50.674;4.618;2023-04-25T14:46:26;8.23;;;1.95;;
72649;SDS011;61467;50.674;4.618;2023-04-25T14:48:53;5.20;;;1.10;;